sensor_id;sensor_type;location;lat;lon;timestamp;P1;durP1;ratioP1;P2;durP2;ratioP2
27804;SDS011;15183;51.350;11.102;2022-07-21T00:00:49;21.27;;;6.10;;
27804;SDS011;15183;51.350;11.102;2022-07-21T00:03:15;34.40;;;6.97;;
27804;SDS011;15183;51.350;11.102;2022-07-21T00:05:41;37.33;;;7.03;;
27804;SDS011;15183;51.350;11.102;2022-07-21T00:08:08;21.80;;;5.55;;
27804;SDS011;15183;51.350;11.102;2022-07-21T00:10:34;12.98;;;4.78;;
27804;SDS011;15183;51.350;11.102;2022-07-21T00:13:01;6.97;;;4.47;;
27804;SDS011;15183;51.350;11.102;2022-07-21T00:15:27;11.05;;;4.00;;
27804;SDS011;15183;51.350;11.102;2022-07-21T00:17:54;8.77;;;3.55;;
27804;SDS011;15183;51.350;11.102;2022-07-21T00:20:22;7.32;;;3.42;;
27804;SDS011;15183;51.350;11.102;2022-07-21T00:22:50;12.18;;;3.63;;
27804;SDS011;15183;51.350;11.102;2022-07-21T00:25:16;13.57;;;3.42;;
27804;SDS011;15183;51.350;11.102;2022-07-21T00:27:42;6.05;;;2.70;;
27804;SDS011;15183;51.350;11.102;2022-07-21T00:30:09;6.88;;;3.13;;
27804;SDS011;15183;51.350;11.102;2022-07-21T00:32:37;5.53;;;3.08;;
27804;SDS011;15183;51.350;11.102;2022-07-21T00:35:04;12.73;;;3.53;;
27804;SDS011;15183;51.350;11.102;2022-07-21T00:37:32;6.45;;;3.05;;
27804;SDS011;15183;51.350;11.102;2022-07-21T00:39:58;6.40;;;2.78;;
27804;SDS011;15183;51.350;11.102;2022-07-21T00:42:26;10.30;;;3.08;;
27804;SDS011;15183;51.350;11.102;2022-07-21T00:44:54;4.32;;;2.38;;
27804;SDS011;15183;51.350;11.102;2022-07-21T00:47:25;5.20;;;2.95;;
27804;SDS011;15183;51.350;11.102;2022-07-21T00:49:55;4.13;;;2.30;;
27804;SDS011;15183;51.350;11.102;2022-07-21T00:52:23;4.75;;;2.35;;
27804;SDS011;15183;51.350;11.102;2022-07-21T00:54:49;3.55;;;2.20;;
27804;SDS011;15183;51.350;11.102;2022-07-21T00:57:16;3.08;;;2.13;;
27804;SDS011;15183;51.350;11.102;2022-07-21T00:59:44;3.03;;;2.40;;
27804;SDS011;15183;51.350;11.102;2022-07-21T01:02:11;2.78;;;2.58;;
27804;SDS011;15183;51.350;11.102;2022-07-21T01:04:38;3.10;;;2.10;;
27804;SDS011;15183;51.350;11.102;2022-07-21T01:07:05;4.65;;;2.10;;
27804;SDS011;15183;51.350;11.102;2022-07-21T01:09:33;4.30;;;1.92;;
27804;SDS011;15183;51.350;11.102;2022-07-21T01:12:01;2.50;;;2.30;;
27804;SDS011;15183;51.350;11.102;2022-07-21T01:14:29;3.25;;;2.47;;
27804;SDS011;15183;51.350;11.102;2022-07-21T01:16:56;3.10;;;2.40;;
27804;SDS011;15183;51.350;11.102;2022-07-21T01:19:23;3.50;;;2.10;;
27804;SDS011;15183;51.350;11.102;2022-07-21T01:21:49;2.38;;;1.95;;
27804;SDS011;15183;51.350;11.102;2022-07-21T01:24:18;2.58;;;1.92;;
27804;SDS011;15183;51.350;11.102;2022-07-21T01:26:45;1.80;;;1.70;;
27804;SDS011;15183;51.350;11.102;2022-07-21T01:29:16;3.47;;;2.15;;
27804;SDS011;15183;51.350;11.102;2022-07-21T01:31:44;1.48;;;1.38;;
27804;SDS011;15183;51.350;11.102;2022-07-21T01:34:13;7.90;;;2.15;;
27804;SDS011;15183;51.350;11.102;2022-07-21T01:36:39;1.50;;;1.30;;
27804;SDS011;15183;51.350;11.102;2022-07-21T01:39:06;2.08;;;1.80;;
27804;SDS011;15183;51.350;11.102;2022-07-21T01:41:52;2.60;;;1.67;;
27804;SDS011;15183;51.350;11.102;2022-07-21T01:44:18;1.73;;;1.45;;
27804;SDS011;15183;51.350;11.102;2022-07-21T01:46:46;3.22;;;1.45;;
27804;SDS011;15183;51.350;11.102;2022-07-21T01:49:15;1.80;;;1.30;;
27804;SDS011;15183;51.350;11.102;2022-07-21T01:51:43;6.45;;;1.60;;
27804;SDS011;15183;51.350;11.102;2022-07-21T01:54:09;2.20;;;1.50;;
27804;SDS011;15183;51.350;11.102;2022-07-21T01:56:37;2.15;;;1.50;;
27804;SDS011;15183;51.350;11.102;2022-07-21T01:59:04;1.40;;;1.30;;
27804;SDS011;15183;51.350;11.102;2022-07-21T02:01:31;1.42;;;1.23;;
27804;SDS011;15183;51.350;11.102;2022-07-21T02:04:00;1.75;;;1.42;;
27804;SDS011;15183;51.350;11.102;2022-07-21T02:06:28;1.40;;;1.30;;
27804;SDS011;15183;51.350;11.102;2022-07-21T02:08:55;3.60;;;1.52;;
27804;SDS011;15183;51.350;11.102;2022-07-21T02:11:22;1.20;;;1.10;;
27804;SDS011;15183;51.350;11.102;2022-07-21T02:13:48;2.95;;;1.10;;
27804;SDS011;15183;51.350;11.102;2022-07-21T02:16:15;1.60;;;1.20;;
27804;SDS011;15183;51.350;11.102;2022-07-21T02:18:41;2.15;;;1.30;;
27804;SDS011;15183;51.350;11.102;2022-07-21T02:21:09;1.55;;;1.45;;
27804;SDS011;15183;51.350;11.102;2022-07-21T02:23:35;3.80;;;1.30;;
27804;SDS011;15183;51.350;11.102;2022-07-21T02:26:02;1.17;;;1.08;;
27804;SDS011;15183;51.350;11.102;2022-07-21T02:28:29;1.60;;;1.13;;
27804;SDS011;15183;51.350;11.102;2022-07-21T02:30:55;6.43;;;1.30;;
27804;SDS011;15183;51.350;11.102;2022-07-21T02:33:22;3.20;;;1.23;;
27804;SDS011;15183;51.350;11.102;2022-07-21T02:35:48;1.02;;;1.00;;
27804;SDS011;15183;51.350;11.102;2022-07-21T02:38:15;1.83;;;1.27;;
27804;SDS011;15183;51.350;11.102;2022-07-21T02:40:41;2.75;;;1.35;;
27804;SDS011;15183;51.350;11.102;2022-07-21T02:43:08;1.35;;;1.02;;
27804;SDS011;15183;51.350;11.102;2022-07-21T02:45:35;2.38;;;1.35;;
27804;SDS011;15183;51.350;11.102;2022-07-21T02:48:03;1.35;;;1.25;;
27804;SDS011;15183;51.350;11.102;2022-07-21T02:50:34;1.30;;;1.20;;
27804;SDS011;15183;51.350;11.102;2022-07-21T02:53:05;2.83;;;1.30;;
27804;SDS011;15183;51.350;11.102;2022-07-21T02:55:38;1.67;;;1.30;;
27804;SDS011;15183;51.350;11.102;2022-07-21T03:00:32;2.08;;;1.30;;
27804;SDS011;15183;51.350;11.102;2022-07-21T03:05:35;5.05;;;1.40;;
27804;SDS011;15183;51.350;11.102;2022-07-21T03:08:02;1.55;;;1.30;;
27804;SDS011;15183;51.350;11.102;2022-07-21T03:10:30;3.20;;;1.45;;
27804;SDS011;15183;51.350;11.102;2022-07-21T03:12:57;3.75;;;1.95;;
27804;SDS011;15183;51.350;11.102;2022-07-21T03:15:23;6.10;;;1.50;;
27804;SDS011;15183;51.350;11.102;2022-07-21T03:17:52;2.08;;;1.73;;
27804;SDS011;15183;51.350;11.102;2022-07-21T03:20:21;1.73;;;1.25;;
27804;SDS011;15183;51.350;11.102;2022-07-21T03:22:56;6.18;;;1.73;;
27804;SDS011;15183;51.350;11.102;2022-07-21T03:25:23;1.67;;;1.58;;
27804;SDS011;15183;51.350;11.102;2022-07-21T03:27:50;2.85;;;1.50;;
27804;SDS011;15183;51.350;11.102;2022-07-21T03:30:17;2.28;;;1.50;;
27804;SDS011;15183;51.350;11.102;2022-07-21T03:32:44;2.45;;;1.88;;
27804;SDS011;15183;51.350;11.102;2022-07-21T03:35:11;2.17;;;1.98;;
27804;SDS011;15183;51.350;11.102;2022-07-21T03:37:42;2.90;;;1.73;;
27804;SDS011;15183;51.350;11.102;2022-07-21T03:40:16;2.50;;;1.92;;
27804;SDS011;15183;51.350;11.102;2022-07-21T03:42:49;2.80;;;1.73;;
27804;SDS011;15183;51.350;11.102;2022-07-21T03:45:18;2.10;;;1.73;;
27804;SDS011;15183;51.350;11.102;2022-07-21T03:47:45;3.13;;;2.38;;
27804;SDS011;15183;51.350;11.102;2022-07-21T03:50:13;4.20;;;1.92;;
27804;SDS011;15183;51.350;11.102;2022-07-21T03:52:43;4.95;;;2.47;;
27804;SDS011;15183;51.350;11.102;2022-07-21T03:55:10;2.05;;;1.88;;
27804;SDS011;15183;51.350;11.102;2022-07-21T03:57:51;2.78;;;1.83;;
27804;SDS011;15183;51.350;11.102;2022-07-21T04:00:31;2.45;;;2.25;;
27804;SDS011;15183;51.350;11.102;2022-07-21T04:03:06;3.53;;;2.38;;
27804;SDS011;15183;51.350;11.102;2022-07-21T04:05:34;1.85;;;1.75;;
27804;SDS011;15183;51.350;11.102;2022-07-21T04:08:01;3.25;;;2.38;;
27804;SDS011;15183;51.350;11.102;2022-07-21T04:10:30;2.40;;;2.20;;
27804;SDS011;15183;51.350;11.102;2022-07-21T04:13:00;4.72;;;2.20;;
27804;SDS011;15183;51.350;11.102;2022-07-21T04:15:30;2.70;;;2.38;;
27804;SDS011;15183;51.350;11.102;2022-07-21T04:17:57;3.25;;;2.67;;
27804;SDS011;15183;51.350;11.102;2022-07-21T04:20:23;5.38;;;2.65;;
27804;SDS011;15183;51.350;11.102;2022-07-21T04:22:50;3.05;;;2.33;;
27804;SDS011;15183;51.350;11.102;2022-07-21T04:25:18;2.92;;;2.60;;
27804;SDS011;15183;51.350;11.102;2022-07-21T04:27:46;2.60;;;2.38;;
27804;SDS011;15183;51.350;11.102;2022-07-21T04:30:15;4.25;;;3.10;;
27804;SDS011;15183;51.350;11.102;2022-07-21T04:32:44;3.35;;;2.70;;
27804;SDS011;15183;51.350;11.102;2022-07-21T04:35:11;3.85;;;2.50;;
27804;SDS011;15183;51.350;11.102;2022-07-21T04:37:38;3.65;;;2.70;;
27804;SDS011;15183;51.350;11.102;2022-07-21T04:40:06;3.40;;;2.75;;
27804;SDS011;15183;51.350;11.102;2022-07-21T04:42:34;4.88;;;3.05;;
27804;SDS011;15183;51.350;11.102;2022-07-21T04:45:02;3.42;;;2.80;;
27804;SDS011;15183;51.350;11.102;2022-07-21T04:47:30;3.28;;;2.80;;
27804;SDS011;15183;51.350;11.102;2022-07-21T04:49:57;3.55;;;2.90;;
27804;SDS011;15183;51.350;11.102;2022-07-21T04:52:23;5.28;;;2.85;;
27804;SDS011;15183;51.350;11.102;2022-07-21T04:54:50;2.53;;;2.33;;
27804;SDS011;15183;51.350;11.102;2022-07-21T04:57:16;3.38;;;2.75;;
27804;SDS011;15183;51.350;11.102;2022-07-21T04:59:43;2.67;;;2.47;;
27804;SDS011;15183;51.350;11.102;2022-07-21T05:02:09;3.10;;;2.75;;
27804;SDS011;15183;51.350;11.102;2022-07-21T05:04:35;3.38;;;3.08;;
27804;SDS011;15183;51.350;11.102;2022-07-21T05:07:02;4.28;;;2.90;;
27804;SDS011;15183;51.350;11.102;2022-07-21T05:09:28;3.85;;;3.03;;
27804;SDS011;15183;51.350;11.102;2022-07-21T05:11:55;5.93;;;2.85;;
27804;SDS011;15183;51.350;11.102;2022-07-21T05:14:21;5.18;;;2.90;;
27804;SDS011;15183;51.350;11.102;2022-07-21T05:16:47;2.90;;;2.53;;
27804;SDS011;15183;51.350;11.102;2022-07-21T05:19:14;3.90;;;2.67;;
27804;SDS011;15183;51.350;11.102;2022-07-21T05:21:40;5.07;;;2.95;;
27804;SDS011;15183;51.350;11.102;2022-07-21T05:24:07;4.13;;;3.53;;
27804;SDS011;15183;51.350;11.102;2022-07-21T05:26:34;3.03;;;2.67;;
27804;SDS011;15183;51.350;11.102;2022-07-21T05:29:02;6.43;;;3.05;;
27804;SDS011;15183;51.350;11.102;2022-07-21T05:31:28;3.28;;;2.97;;
27804;SDS011;15183;51.350;11.102;2022-07-21T05:33:55;3.30;;;2.90;;
27804;SDS011;15183;51.350;11.102;2022-07-21T05:36:21;4.38;;;3.60;;
27804;SDS011;15183;51.350;11.102;2022-07-21T05:38:48;4.75;;;3.63;;
27804;SDS011;15183;51.350;11.102;2022-07-21T05:41:14;5.43;;;4.20;;
27804;SDS011;15183;51.350;11.102;2022-07-21T05:43:40;7.25;;;5.60;;
27804;SDS011;15183;51.350;11.102;2022-07-21T05:46:07;6.22;;;4.97;;
27804;SDS011;15183;51.350;11.102;2022-07-21T05:48:33;7.85;;;4.72;;
27804;SDS011;15183;51.350;11.102;2022-07-21T05:51:00;4.72;;;4.32;;
27804;SDS011;15183;51.350;11.102;2022-07-21T05:53:26;5.82;;;4.47;;
27804;SDS011;15183;51.350;11.102;2022-07-21T05:55:53;5.28;;;4.78;;
27804;SDS011;15183;51.350;11.102;2022-07-21T05:58:19;5.63;;;4.32;;
27804;SDS011;15183;51.350;11.102;2022-07-21T06:00:50;5.45;;;4.20;;
27804;SDS011;15183;51.350;11.102;2022-07-21T06:03:38;5.13;;;4.25;;
27804;SDS011;15183;51.350;11.102;2022-07-21T06:06:11;4.28;;;3.58;;
27804;SDS011;15183;51.350;11.102;2022-07-21T06:08:40;5.60;;;4.20;;
27804;SDS011;15183;51.350;11.102;2022-07-21T06:11:08;4.28;;;3.88;;
27804;SDS011;15183;51.350;11.102;2022-07-21T06:13:37;5.22;;;4.30;;
27804;SDS011;15183;51.350;11.102;2022-07-21T06:16:04;5.30;;;4.55;;
27804;SDS011;15183;51.350;11.102;2022-07-21T06:18:32;6.50;;;4.05;;
27804;SDS011;15183;51.350;11.102;2022-07-21T06:20:59;4.78;;;4.28;;
27804;SDS011;15183;51.350;11.102;2022-07-21T06:23:26;4.93;;;3.92;;
27804;SDS011;15183;51.350;11.102;2022-07-21T06:25:52;4.45;;;4.05;;
27804;SDS011;15183;51.350;11.102;2022-07-21T06:28:19;5.28;;;4.10;;
27804;SDS011;15183;51.350;11.102;2022-07-21T06:30:46;4.45;;;4.00;;
27804;SDS011;15183;51.350;11.102;2022-07-21T06:33:14;4.32;;;3.70;;
27804;SDS011;15183;51.350;11.102;2022-07-21T06:35:41;6.80;;;4.32;;
27804;SDS011;15183;51.350;11.102;2022-07-21T06:38:08;4.68;;;4.18;;
27804;SDS011;15183;51.350;11.102;2022-07-21T06:40:35;5.18;;;4.40;;
27804;SDS011;15183;51.350;11.102;2022-07-21T06:43:01;5.50;;;5.00;;
27804;SDS011;15183;51.350;11.102;2022-07-21T06:45:28;5.22;;;4.47;;
27804;SDS011;15183;51.350;11.102;2022-07-21T06:48:01;6.22;;;5.07;;
27804;SDS011;15183;51.350;11.102;2022-07-21T06:50:32;7.47;;;5.57;;
27804;SDS011;15183;51.350;11.102;2022-07-21T06:52:59;6.70;;;5.07;;
27804;SDS011;15183;51.350;11.102;2022-07-21T06:55:27;6.88;;;4.65;;
27804;SDS011;15183;51.350;11.102;2022-07-21T06:57:54;5.55;;;4.60;;
27804;SDS011;15183;51.350;11.102;2022-07-21T07:00:21;5.93;;;4.97;;
27804;SDS011;15183;51.350;11.102;2022-07-21T07:02:47;10.50;;;5.50;;
27804;SDS011;15183;51.350;11.102;2022-07-21T07:05:14;6.93;;;5.18;;
27804;SDS011;15183;51.350;11.102;2022-07-21T07:07:41;5.97;;;5.40;;
27804;SDS011;15183;51.350;11.102;2022-07-21T07:10:09;7.28;;;4.53;;
27804;SDS011;15183;51.350;11.102;2022-07-21T07:12:36;8.30;;;6.53;;
27804;SDS011;15183;51.350;11.102;2022-07-21T07:15:02;9.85;;;5.30;;
27804;SDS011;15183;51.350;11.102;2022-07-21T07:17:29;6.07;;;5.35;;
27804;SDS011;15183;51.350;11.102;2022-07-21T07:19:55;5.78;;;4.63;;
27804;SDS011;15183;51.350;11.102;2022-07-21T07:22:22;7.72;;;5.15;;
27804;SDS011;15183;51.350;11.102;2022-07-21T07:24:48;7.30;;;5.75;;
27804;SDS011;15183;51.350;11.102;2022-07-21T07:27:15;6.90;;;5.88;;
27804;SDS011;15183;51.350;11.102;2022-07-21T07:29:41;6.18;;;5.57;;
27804;SDS011;15183;51.350;11.102;2022-07-21T07:32:08;6.20;;;5.38;;
27804;SDS011;15183;51.350;11.102;2022-07-21T07:34:34;5.97;;;5.45;;
27804;SDS011;15183;51.350;11.102;2022-07-21T07:37:01;13.05;;;7.22;;
27804;SDS011;15183;51.350;11.102;2022-07-21T07:39:27;7.75;;;6.13;;
27804;SDS011;15183;51.350;11.102;2022-07-21T07:41:53;7.15;;;5.68;;
27804;SDS011;15183;51.350;11.102;2022-07-21T07:44:21;8.80;;;6.18;;
27804;SDS011;15183;51.350;11.102;2022-07-21T07:46:48;7.05;;;6.20;;
27804;SDS011;15183;51.350;11.102;2022-07-21T07:49:15;7.13;;;6.40;;
27804;SDS011;15183;51.350;11.102;2022-07-21T07:51:42;8.15;;;5.90;;
27804;SDS011;15183;51.350;11.102;2022-07-21T07:54:08;6.90;;;6.30;;
27804;SDS011;15183;51.350;11.102;2022-07-21T07:56:35;9.25;;;6.57;;
27804;SDS011;15183;51.350;11.102;2022-07-21T07:59:01;6.80;;;6.10;;
27804;SDS011;15183;51.350;11.102;2022-07-21T08:01:28;7.82;;;6.03;;
27804;SDS011;15183;51.350;11.102;2022-07-21T08:03:54;5.60;;;5.18;;
27804;SDS011;15183;51.350;11.102;2022-07-21T08:06:21;8.10;;;6.68;;
27804;SDS011;15183;51.350;11.102;2022-07-21T08:08:48;7.07;;;6.07;;
27804;SDS011;15183;51.350;11.102;2022-07-21T08:11:14;6.93;;;6.22;;
27804;SDS011;15183;51.350;11.102;2022-07-21T08:13:41;6.85;;;5.95;;
27804;SDS011;15183;51.350;11.102;2022-07-21T08:16:08;7.22;;;6.53;;
27804;SDS011;15183;51.350;11.102;2022-07-21T08:18:35;8.43;;;6.78;;
27804;SDS011;15183;51.350;11.102;2022-07-21T08:21:01;6.90;;;6.20;;
27804;SDS011;15183;51.350;11.102;2022-07-21T08:23:28;7.43;;;5.97;;
27804;SDS011;15183;51.350;11.102;2022-07-21T08:25:54;6.90;;;6.20;;
27804;SDS011;15183;51.350;11.102;2022-07-21T08:28:22;8.50;;;5.97;;
27804;SDS011;15183;51.350;11.102;2022-07-21T08:30:48;8.95;;;5.93;;
27804;SDS011;15183;51.350;11.102;2022-07-21T08:33:15;7.57;;;6.03;;
27804;SDS011;15183;51.350;11.102;2022-07-21T08:35:41;7.68;;;6.30;;
27804;SDS011;15183;51.350;11.102;2022-07-21T08:38:09;6.47;;;5.80;;
27804;SDS011;15183;51.350;11.102;2022-07-21T08:40:41;7.45;;;5.85;;
27804;SDS011;15183;51.350;11.102;2022-07-21T08:43:10;7.85;;;6.28;;
27804;SDS011;15183;51.350;11.102;2022-07-21T08:45:39;8.02;;;5.90;;
27804;SDS011;15183;51.350;11.102;2022-07-21T08:48:06;8.18;;;5.60;;
27804;SDS011;15183;51.350;11.102;2022-07-21T08:50:35;7.10;;;5.95;;
27804;SDS011;15183;51.350;11.102;2022-07-21T08:53:05;6.60;;;5.85;;
27804;SDS011;15183;51.350;11.102;2022-07-21T08:55:33;8.15;;;6.60;;
27804;SDS011;15183;51.350;11.102;2022-07-21T08:58:02;10.18;;;6.75;;
27804;SDS011;15183;51.350;11.102;2022-07-21T09:00:29;8.02;;;5.68;;
27804;SDS011;15183;51.350;11.102;2022-07-21T09:06:08;5.93;;;5.32;;
27804;SDS011;15183;51.350;11.102;2022-07-21T09:08:40;5.80;;;5.05;;
27804;SDS011;15183;51.350;11.102;2022-07-21T09:13:51;5.57;;;5.07;;
27804;SDS011;15183;51.350;11.102;2022-07-21T09:16:42;5.78;;;5.10;;
27804;SDS011;15183;51.350;11.102;2022-07-21T09:19:16;6.20;;;4.85;;
27804;SDS011;15183;51.350;11.102;2022-07-21T09:22:02;7.43;;;5.40;;
27804;SDS011;15183;51.350;11.102;2022-07-21T09:24:34;7.45;;;5.13;;
27804;SDS011;15183;51.350;11.102;2022-07-21T09:27:12;5.68;;;5.10;;
27804;SDS011;15183;51.350;11.102;2022-07-21T09:32:30;5.07;;;4.57;;
27804;SDS011;15183;51.350;11.102;2022-07-21T09:35:04;5.38;;;4.90;;
27804;SDS011;15183;51.350;11.102;2022-07-21T09:37:39;6.15;;;4.85;;
27804;SDS011;15183;51.350;11.102;2022-07-21T09:40:08;7.15;;;5.20;;
27804;SDS011;15183;51.350;11.102;2022-07-21T09:42:41;5.18;;;4.57;;
27804;SDS011;15183;51.350;11.102;2022-07-21T09:45:14;6.05;;;4.72;;
27804;SDS011;15183;51.350;11.102;2022-07-21T09:47:45;5.70;;;5.10;;
27804;SDS011;15183;51.350;11.102;2022-07-21T09:50:13;5.03;;;4.55;;
27804;SDS011;15183;51.350;11.102;2022-07-21T09:52:42;5.00;;;4.57;;
27804;SDS011;15183;51.350;11.102;2022-07-21T09:55:16;5.70;;;4.40;;
27804;SDS011;15183;51.350;11.102;2022-07-21T09:57:43;5.35;;;4.85;;
27804;SDS011;15183;51.350;11.102;2022-07-21T10:00:14;5.65;;;4.35;;
27804;SDS011;15183;51.350;11.102;2022-07-21T10:02:44;4.32;;;3.80;;
27804;SDS011;15183;51.350;11.102;2022-07-21T10:05:15;4.65;;;4.10;;
27804;SDS011;15183;51.350;11.102;2022-07-21T10:07:45;4.75;;;3.80;;
27804;SDS011;15183;51.350;11.102;2022-07-21T10:10:15;4.35;;;3.70;;
27804;SDS011;15183;51.350;11.102;2022-07-21T10:12:44;4.18;;;3.78;;
27804;SDS011;15183;51.350;11.102;2022-07-21T10:15:11;3.85;;;3.45;;
27804;SDS011;15183;51.350;11.102;2022-07-21T10:17:38;3.67;;;3.38;;
27804;SDS011;15183;51.350;11.102;2022-07-21T10:20:11;3.65;;;3.35;;
27804;SDS011;15183;51.350;11.102;2022-07-21T10:25:40;3.80;;;3.50;;
27804;SDS011;15183;51.350;11.102;2022-07-21T10:28:16;12.18;;;3.90;;
27804;SDS011;15183;51.350;11.102;2022-07-21T10:30:55;4.38;;;3.97;;
27804;SDS011;15183;51.350;11.102;2022-07-21T10:36:09;4.53;;;3.83;;
27804;SDS011;15183;51.350;11.102;2022-07-21T10:41:46;4.20;;;2.95;;
27804;SDS011;15183;51.350;11.102;2022-07-21T10:47:00;3.35;;;3.00;;
27804;SDS011;15183;51.350;11.102;2022-07-21T10:49:41;4.07;;;2.80;;
27804;SDS011;15183;51.350;11.102;2022-07-21T10:57:43;2.30;;;1.98;;
27804;SDS011;15183;51.350;11.102;2022-07-21T11:03:01;2.78;;;2.13;;
27804;SDS011;15183;51.350;11.102;2022-07-21T11:05:30;1.95;;;1.80;;
27804;SDS011;15183;51.350;11.102;2022-07-21T11:10:48;2.40;;;1.85;;
27804;SDS011;15183;51.350;11.102;2022-07-21T11:13:17;2.60;;;1.80;;
27804;SDS011;15183;51.350;11.102;2022-07-21T11:15:55;2.10;;;1.90;;
27804;SDS011;15183;51.350;11.102;2022-07-21T11:18:29;4.22;;;1.70;;
27804;SDS011;15183;51.350;11.102;2022-07-21T11:23:43;2.08;;;1.70;;
27804;SDS011;15183;51.350;11.102;2022-07-21T11:26:11;1.50;;;1.40;;
27804;SDS011;15183;51.350;11.102;2022-07-21T11:28:40;3.17;;;1.50;;
27804;SDS011;15183;51.350;11.102;2022-07-21T11:33:41;3.63;;;1.55;;
27804;SDS011;15183;51.350;11.102;2022-07-21T11:36:22;1.73;;;1.63;;
27804;SDS011;15183;51.350;11.102;2022-07-21T11:39:09;1.52;;;1.42;;
27804;SDS011;15183;51.350;11.102;2022-07-21T11:41:40;1.52;;;1.42;;
27804;SDS011;15183;51.350;11.102;2022-07-21T11:44:08;2.10;;;1.58;;
27804;SDS011;15183;51.350;11.102;2022-07-21T11:46:52;2.20;;;1.77;;
27804;SDS011;15183;51.350;11.102;2022-07-21T11:49:22;2.22;;;1.58;;
27804;SDS011;15183;51.350;11.102;2022-07-21T11:51:50;2.03;;;1.35;;
27804;SDS011;15183;51.350;11.102;2022-07-21T11:54:38;1.92;;;1.52;;
27804;SDS011;15183;51.350;11.102;2022-07-21T11:57:11;1.58;;;1.48;;
27804;SDS011;15183;51.350;11.102;2022-07-21T11:59:39;1.52;;;1.42;;
27804;SDS011;15183;51.350;11.102;2022-07-21T12:02:11;1.63;;;1.48;;
27804;SDS011;15183;51.350;11.102;2022-07-21T12:04:38;4.40;;;1.35;;
27804;SDS011;15183;51.350;11.102;2022-07-21T12:10:22;3.13;;;1.55;;
27804;SDS011;15183;51.350;11.102;2022-07-21T12:12:51;1.58;;;1.48;;
27804;SDS011;15183;51.350;11.102;2022-07-21T12:15:31;4.22;;;1.50;;
27804;SDS011;15183;51.350;11.102;2022-07-21T12:18:04;2.05;;;1.38;;
27804;SDS011;15183;51.350;11.102;2022-07-21T12:20:59;5.60;;;1.10;;
27804;SDS011;15183;51.350;11.102;2022-07-21T12:23:29;1.65;;;1.40;;
27804;SDS011;15183;51.350;11.102;2022-07-21T12:25:57;5.75;;;1.30;;
27804;SDS011;15183;51.350;11.102;2022-07-21T12:28:46;1.63;;;1.40;;
27804;SDS011;15183;51.350;11.102;2022-07-21T12:31:18;1.52;;;1.27;;
27804;SDS011;15183;51.350;11.102;2022-07-21T12:33:47;1.33;;;1.20;;
27804;SDS011;15183;51.350;11.102;2022-07-21T12:36:18;1.85;;;1.50;;
27804;SDS011;15183;51.350;11.102;2022-07-21T12:38:53;1.75;;;1.30;;
27804;SDS011;15183;51.350;11.102;2022-07-21T12:41:20;1.77;;;1.27;;
27804;SDS011;15183;51.350;11.102;2022-07-21T12:43:54;1.85;;;1.50;;
27804;SDS011;15183;51.350;11.102;2022-07-21T12:46:29;1.08;;;1.02;;
27804;SDS011;15183;51.350;11.102;2022-07-21T12:49:05;2.05;;;1.45;;
27804;SDS011;15183;51.350;11.102;2022-07-21T12:51:35;1.45;;;1.10;;
27804;SDS011;15183;51.350;11.102;2022-07-21T12:54:02;2.28;;;1.38;;
27804;SDS011;15183;51.350;11.102;2022-07-21T12:56:30;2.15;;;1.38;;
27804;SDS011;15183;51.350;11.102;2022-07-21T12:58:59;1.40;;;1.30;;
27804;SDS011;15183;51.350;11.102;2022-07-21T13:01:27;1.40;;;1.30;;
27804;SDS011;15183;51.350;11.102;2022-07-21T13:03:56;3.45;;;1.33;;
27804;SDS011;15183;51.350;11.102;2022-07-21T13:06:23;4.78;;;1.42;;
27804;SDS011;15183;51.350;11.102;2022-07-21T13:08:50;2.88;;;1.73;;
27804;SDS011;15183;51.350;11.102;2022-07-21T13:11:17;1.63;;;1.27;;
27804;SDS011;15183;51.350;11.102;2022-07-21T13:13:45;3.13;;;1.40;;
27804;SDS011;15183;51.350;11.102;2022-07-21T13:16:16;2.15;;;1.30;;
27804;SDS011;15183;51.350;11.102;2022-07-21T13:18:45;3.90;;;1.50;;
27804;SDS011;15183;51.350;11.102;2022-07-21T13:21:12;4.43;;;1.63;;
27804;SDS011;15183;51.350;11.102;2022-07-21T13:23:38;2.35;;;1.52;;
27804;SDS011;15183;51.350;11.102;2022-07-21T13:26:05;1.75;;;1.48;;
27804;SDS011;15183;51.350;11.102;2022-07-21T13:28:32;1.95;;;1.30;;
27804;SDS011;15183;51.350;11.102;2022-07-21T13:31:00;1.42;;;1.00;;
27804;SDS011;15183;51.350;11.102;2022-07-21T13:33:27;2.78;;;2.30;;
27804;SDS011;15183;51.350;11.102;2022-07-21T13:35:53;3.10;;;2.15;;
27804;SDS011;15183;51.350;11.102;2022-07-21T13:38:19;2.35;;;1.80;;
27804;SDS011;15183;51.350;11.102;2022-07-21T13:40:46;1.55;;;1.40;;
27804;SDS011;15183;51.350;11.102;2022-07-21T13:43:12;1.75;;;0.95;;
27804;SDS011;15183;51.350;11.102;2022-07-21T13:45:40;1.02;;;1.00;;
27804;SDS011;15183;51.350;11.102;2022-07-21T13:48:07;1.35;;;1.20;;
27804;SDS011;15183;51.350;11.102;2022-07-21T13:50:34;1.33;;;1.17;;
27804;SDS011;15183;51.350;11.102;2022-07-21T13:53:00;1.15;;;1.05;;
27804;SDS011;15183;51.350;11.102;2022-07-21T13:55:27;2.90;;;1.10;;
27804;SDS011;15183;51.350;11.102;2022-07-21T13:57:53;2.67;;;1.50;;
27804;SDS011;15183;51.350;11.102;2022-07-21T14:00:20;1.75;;;1.00;;
27804;SDS011;15183;51.350;11.102;2022-07-21T14:02:46;4.47;;;1.40;;
27804;SDS011;15183;51.350;11.102;2022-07-21T14:05:13;3.13;;;1.40;;
27804;SDS011;15183;51.350;11.102;2022-07-21T14:07:40;1.20;;;1.10;;
27804;SDS011;15183;51.350;11.102;2022-07-21T14:10:07;1.60;;;1.40;;
27804;SDS011;15183;51.350;11.102;2022-07-21T14:12:34;2.08;;;1.05;;
27804;SDS011;15183;51.350;11.102;2022-07-21T14:15:01;3.53;;;1.27;;
27804;SDS011;15183;51.350;11.102;2022-07-21T14:17:28;3.50;;;1.30;;
27804;SDS011;15183;51.350;11.102;2022-07-21T14:19:54;3.78;;;1.42;;
27804;SDS011;15183;51.350;11.102;2022-07-21T14:22:21;1.13;;;1.00;;
27804;SDS011;15183;51.350;11.102;2022-07-21T14:24:48;2.42;;;2.00;;
27804;SDS011;15183;51.350;11.102;2022-07-21T14:27:33;1.30;;;1.20;;
27804;SDS011;15183;51.350;11.102;2022-07-21T14:29:59;4.28;;;1.35;;
27804;SDS011;15183;51.350;11.102;2022-07-21T14:32:26;4.30;;;1.08;;
27804;SDS011;15183;51.350;11.102;2022-07-21T14:34:53;1.17;;;1.08;;
27804;SDS011;15183;51.350;11.102;2022-07-21T14:37:19;3.35;;;1.50;;
27804;SDS011;15183;51.350;11.102;2022-07-21T14:39:47;1.25;;;1.15;;
27804;SDS011;15183;51.350;11.102;2022-07-21T14:42:14;2.30;;;1.00;;
27804;SDS011;15183;51.350;11.102;2022-07-21T14:44:42;1.40;;;1.30;;
27804;SDS011;15183;51.350;11.102;2022-07-21T14:47:10;2.13;;;1.85;;
27804;SDS011;15183;51.350;11.102;2022-07-21T14:49:36;1.55;;;1.30;;
27804;SDS011;15183;51.350;11.102;2022-07-21T14:52:03;2.38;;;1.42;;
27804;SDS011;15183;51.350;11.102;2022-07-21T14:54:30;4.07;;;1.38;;
27804;SDS011;15183;51.350;11.102;2022-07-21T14:56:57;1.80;;;1.25;;
27804;SDS011;15183;51.350;11.102;2022-07-21T14:59:23;1.63;;;1.00;;
27804;SDS011;15183;51.350;11.102;2022-07-21T15:01:49;1.60;;;1.50;;
27804;SDS011;15183;51.350;11.102;2022-07-21T15:04:16;1.60;;;1.17;;
27804;SDS011;15183;51.350;11.102;2022-07-21T15:06:44;1.83;;;1.38;;
27804;SDS011;15183;51.350;11.102;2022-07-21T15:09:11;1.40;;;1.30;;
27804;SDS011;15183;51.350;11.102;2022-07-21T15:11:38;1.33;;;1.23;;
27804;SDS011;15183;51.350;11.102;2022-07-21T15:14:05;1.10;;;1.00;;
27804;SDS011;15183;51.350;11.102;2022-07-21T15:16:31;1.80;;;1.20;;
27804;SDS011;15183;51.350;11.102;2022-07-21T15:18:57;1.55;;;1.30;;
27804;SDS011;15183;51.350;11.102;2022-07-21T15:21:24;1.98;;;1.40;;
27804;SDS011;15183;51.350;11.102;2022-07-21T15:23:51;2.72;;;1.27;;
27804;SDS011;15183;51.350;11.102;2022-07-21T15:26:17;3.03;;;1.20;;